createdAt,value
2023-12-08T03:07:51.260Z,22.02
2023-12-08T03:10:17.877Z,22.00
2023-12-08T03:12:44.486Z,21.99
2023-12-08T03:15:11.157Z,22.00
2023-12-08T03:17:37.951Z,22.01
2023-12-08T03:20:04.738Z,22.02
2023-12-08T03:22:31.377Z,21.98
2023-12-08T03:24:57.999Z,21.95
2023-12-08T03:27:24.918Z,21.95
2023-12-08T03:29:51.693Z,21.93
2023-12-08T03:32:18.353Z,21.95
2023-12-08T03:34:44.988Z,21.97
2023-12-08T03:37:11.596Z,21.97
2023-12-08T03:39:38.202Z,21.95
2023-12-08T03:42:05.001Z,21.95
2023-12-08T03:44:32.076Z,21.91
2023-12-08T03:46:58.688Z,21.95
2023-12-08T03:49:25.402Z,21.92
2023-12-08T03:51:52.111Z,21.97
2023-12-08T03:54:18.912Z,21.92
2023-12-08T03:56:45.572Z,21.95
2023-12-08T03:59:12.194Z,21.97
2023-12-08T04:01:38.799Z,21.87
2023-12-08T04:04:05.436Z,21.91
2023-12-08T04:06:32.096Z,21.97
2023-12-08T04:08:58.739Z,21.98
2023-12-08T04:11:25.338Z,21.94
2023-12-08T04:13:51.943Z,21.97
2023-12-08T04:16:18.555Z,21.96
2023-12-08T04:18:45.307Z,21.98
2023-12-08T04:21:12.078Z,21.95
2023-12-08T04:23:38.761Z,21.95
2023-12-08T04:26:05.396Z,21.90
2023-12-08T04:28:31.998Z,21.94
2023-12-08T04:30:58.598Z,21.96
2023-12-08T04:33:25.294Z,21.95
2023-12-08T04:35:52.020Z,21.92
2023-12-08T04:38:18.657Z,21.94
2023-12-08T04:40:46.407Z,21.96
2023-12-08T04:43:14.158Z,21.97
2023-12-08T04:45:40.782Z,21.93
2023-12-08T04:48:07.642Z,21.93
2023-12-08T04:50:34.383Z,21.91
2023-12-08T04:53:01.031Z,21.93
2023-12-08T04:55:27.649Z,21.95
2023-12-08T04:57:54.265Z,21.95
2023-12-08T05:00:20.914Z,21.94
2023-12-08T05:02:47.511Z,21.90
2023-12-08T05:05:14.113Z,21.89
2023-12-08T05:07:40.728Z,21.90
2023-12-08T05:10:07.319Z,21.88
2023-12-08T05:12:33.923Z,21.86
2023-12-08T05:15:00.575Z,21.89
2023-12-08T05:17:27.406Z,21.88
2023-12-08T05:19:54.172Z,21.91
2023-12-08T05:22:20.796Z,21.93
2023-12-08T05:24:47.414Z,21.96
2023-12-08T05:27:14.578Z,21.91
2023-12-08T05:29:41.359Z,21.90
2023-12-08T05:32:08.080Z,21.90
2023-12-08T05:34:34.774Z,21.90
2023-12-08T05:37:01.427Z,21.90
2023-12-08T05:39:28.032Z,21.89
2023-12-08T05:41:54.664Z,21.87
2023-12-08T05:44:21.290Z,21.86
2023-12-08T05:46:47.954Z,21.92
2023-12-08T05:49:14.689Z,21.88
2023-12-08T05:51:41.378Z,21.91
2023-12-08T05:54:08.057Z,21.89
2023-12-08T05:56:34.705Z,21.88
2023-12-08T05:59:01.332Z,21.91
2023-12-08T06:01:27.938Z,21.91
2023-12-08T06:03:54.564Z,21.85
2023-12-08T06:06:21.297Z,21.90
2023-12-08T06:08:48.064Z,21.90
2023-12-08T06:11:14.685Z,21.86
2023-12-08T06:13:41.292Z,21.92
2023-12-08T06:16:07.928Z,21.90
2023-12-08T06:18:34.628Z,21.89
2023-12-08T06:21:01.441Z,21.88
2023-12-08T06:23:28.097Z,21.92
2023-12-08T06:25:54.692Z,21.94
2023-12-08T06:28:21.310Z,21.96
2023-12-08T06:30:47.905Z,21.97
2023-12-08T06:33:14.594Z,21.95
2023-12-08T06:35:41.361Z,21.93
2023-12-08T06:38:08.002Z,21.96
2023-12-08T06:40:34.617Z,21.96
2023-12-08T06:43:01.297Z,21.94
2023-12-08T06:45:27.909Z,21.96
2023-12-08T06:47:56.365Z,21.98
2023-12-08T06:50:23.564Z,21.98
2023-12-08T06:52:50.170Z,21.97
2023-12-08T06:55:16.810Z,21.94
2023-12-08T06:57:43.466Z,21.98
2023-12-08T07:00:10.156Z,21.99
2023-12-08T07:02:36.856Z,21.98
2023-12-08T07:05:03.514Z,22.00
2023-12-08T07:07:30.204Z,21.98
2023-12-08T07:09:56.825Z,22.00
2023-12-08T07:12:23.475Z,21.96
2023-12-08T07:14:50.327Z,22.00
2023-12-08T07:17:16.954Z,21.99
2023-12-08T07:19:43.614Z,22.01
2023-12-08T07:22:10.352Z,22.03
2023-12-08T07:24:36.939Z,22.00
2023-12-08T07:27:03.539Z,22.01
2023-12-08T07:29:30.195Z,22.01
2023-12-08T07:31:56.793Z,22.03
2023-12-08T07:34:23.541Z,22.02
2023-12-08T07:36:50.251Z,22.00
2023-12-08T07:39:16.926Z,22.00
2023-12-08T07:41:43.580Z,21.98
2023-12-08T07:44:10.186Z,22.05
2023-12-08T07:46:36.967Z,22.05
2023-12-08T07:49:03.639Z,22.02
2023-12-08T07:51:30.354Z,22.04
2023-12-08T07:53:57.080Z,22.00
2023-12-08T07:56:23.872Z,21.98
2023-12-08T07:58:50.467Z,21.97
2023-12-08T08:01:17.129Z,22.02
2023-12-08T08:03:43.772Z,22.01
2023-12-08T08:06:10.499Z,22.06
2023-12-08T08:08:37.217Z,22.05
2023-12-08T08:11:03.815Z,22.04
2023-12-08T08:13:30.415Z,22.02
2023-12-08T08:15:57.155Z,22.05
2023-12-08T08:18:23.955Z,22.04
2023-12-08T08:20:50.751Z,22.02
2023-12-08T08:23:17.407Z,22.05
2023-12-08T08:25:44.031Z,22.05
2023-12-08T08:28:10.639Z,22.07
2023-12-08T08:30:37.249Z,22.08
2023-12-08T08:33:04.038Z,22.09
2023-12-08T08:35:30.800Z,22.08
2023-12-08T08:37:57.421Z,22.09
2023-12-08T08:40:24.322Z,22.12
2023-12-08T08:42:50.950Z,22.15
2023-12-08T08:45:17.743Z,22.10
2023-12-08T08:47:44.658Z,22.17
2023-12-08T08:50:11.445Z,22.21
2023-12-08T08:52:38.138Z,22.17
2023-12-08T08:55:04.752Z,22.18
2023-12-08T08:57:31.357Z,22.22
2023-12-08T08:59:58.598Z,22.16
2023-12-08T09:02:25.587Z,22.15
2023-12-08T09:04:52.390Z,22.17
2023-12-08T09:07:19.039Z,22.18
2023-12-08T09:09:45.655Z,22.18
2023-12-08T09:12:12.326Z,22.16
2023-12-08T09:14:39.018Z,22.17
2023-12-08T09:17:05.643Z,22.17
2023-12-08T09:19:32.301Z,22.18
2023-12-08T09:21:58.929Z,22.15
2023-12-08T09:24:25.578Z,22.18
2023-12-08T09:26:52.237Z,22.16
2023-12-08T09:29:18.907Z,22.15
2023-12-08T09:31:45.509Z,22.16
2023-12-08T09:34:12.424Z,22.13
2023-12-08T09:36:39.582Z,22.16
2023-12-08T09:39:06.296Z,22.16
2023-12-08T09:41:32.971Z,22.18
2023-12-08T09:43:59.574Z,22.18
2023-12-08T09:46:26.197Z,22.16
2023-12-08T09:48:52.925Z,22.21
2023-12-08T09:51:19.682Z,22.15
2023-12-08T09:53:46.292Z,22.17
2023-12-08T09:56:12.922Z,22.18
2023-12-08T09:58:39.525Z,22.18
2023-12-08T10:01:06.210Z,22.15
2023-12-08T10:03:32.876Z,22.21
2023-12-08T10:05:59.525Z,22.18
2023-12-08T10:08:26.184Z,22.18
2023-12-08T10:10:52.813Z,22.21
2023-12-08T10:13:19.439Z,22.21
2023-12-08T10:15:46.067Z,22.18
2023-12-08T10:18:12.865Z,22.18
2023-12-08T10:20:39.609Z,22.20
2023-12-08T10:23:06.231Z,22.29
2023-12-08T10:25:32.940Z,22.33
2023-12-08T10:27:59.596Z,22.42
2023-12-08T10:30:26.239Z,22.46
2023-12-08T10:32:53.166Z,22.47
2023-12-08T10:35:19.894Z,22.49
2023-12-08T10:37:46.518Z,22.42
2023-12-08T10:40:13.139Z,22.55
2023-12-08T10:42:39.744Z,22.56
2023-12-08T10:45:06.398Z,22.56
2023-12-08T10:47:33.026Z,22.62
2023-12-08T10:49:59.641Z,22.57
2023-12-08T10:52:26.254Z,22.60
2023-12-08T10:54:52.852Z,22.63
2023-12-08T10:57:19.587Z,22.58
2023-12-08T10:59:46.261Z,22.58
2023-12-08T11:02:12.895Z,22.60
2023-12-08T11:04:39.573Z,22.62
2023-12-08T11:07:06.244Z,22.59
2023-12-08T11:09:32.852Z,22.67
2023-12-08T11:11:59.477Z,22.65
2023-12-08T11:14:26.102Z,22.66
2023-12-08T11:16:52.727Z,22.65
2023-12-08T11:19:21.282Z,22.65
2023-12-08T11:21:49.299Z,22.67
2023-12-08T11:24:16.043Z,22.69
2023-12-08T11:26:42.784Z,22.68
2023-12-08T11:29:09.426Z,22.72
2023-12-08T11:31:36.032Z,22.70
2023-12-08T11:34:02.764Z,22.68
2023-12-08T11:36:29.440Z,22.75
2023-12-08T11:38:56.071Z,22.71
2023-12-08T11:41:22.699Z,22.76
2023-12-08T11:43:49.316Z,22.78
2023-12-08T11:46:16.023Z,22.79
2023-12-08T11:48:43.231Z,22.81
2023-12-08T11:51:10.001Z,22.84
2023-12-08T11:53:36.793Z,22.79
2023-12-08T11:56:03.447Z,22.80
2023-12-08T11:58:30.058Z,22.79
2023-12-08T12:00:57.605Z,22.81
2023-12-08T12:03:25.518Z,22.80
2023-12-08T12:05:52.245Z,22.87
2023-12-08T12:08:18.873Z,22.83
2023-12-08T12:10:45.480Z,22.83
2023-12-08T12:13:12.115Z,22.87
2023-12-08T12:15:38.848Z,22.89
2023-12-08T12:18:05.656Z,22.89
2023-12-08T12:20:32.395Z,22.91
2023-12-08T12:22:59.000Z,22.94
2023-12-08T12:25:25.614Z,22.95
2023-12-08T12:27:52.212Z,22.97
2023-12-08T12:30:18.983Z,22.96
2023-12-08T12:32:45.788Z,22.96
2023-12-08T12:35:12.501Z,22.96
2023-12-08T12:37:39.122Z,22.91
2023-12-08T12:40:05.762Z,22.93
2023-12-08T12:42:32.375Z,22.93
2023-12-08T12:45:00.107Z,22.98
2023-12-08T12:47:27.529Z,22.97
2023-12-08T12:49:54.321Z,22.99
2023-12-08T12:52:20.935Z,22.97
2023-12-08T12:54:47.571Z,23.01
2023-12-08T12:57:14.206Z,22.99
2023-12-08T12:59:40.895Z,22.99
2023-12-08T13:02:07.548Z,22.96
2023-12-08T13:04:34.245Z,23.01
2023-12-08T13:07:00.893Z,23.00
2023-12-08T13:09:27.555Z,23.00
2023-12-08T13:11:54.234Z,22.99
2023-12-08T13:14:20.842Z,22.99
2023-12-08T13:16:47.475Z,23.01
2023-12-08T13:19:14.322Z,22.98
2023-12-08T13:21:41.044Z,22.99
2023-12-08T13:24:07.738Z,23.00
2023-12-08T13:26:36.795Z,23.00
2023-12-08T13:29:04.808Z,22.99
2023-12-08T13:31:31.462Z,22.96
2023-12-08T13:33:58.192Z,22.95
2023-12-08T13:36:24.892Z,22.97
2023-12-08T13:38:51.602Z,22.97
2023-12-08T13:41:18.214Z,22.92
2023-12-08T13:43:44.825Z,22.95
2023-12-08T13:46:11.490Z,22.94
2023-12-08T13:48:38.343Z,22.91
2023-12-08T13:51:14.154Z,22.93
2023-12-08T13:53:51.733Z,22.92
2023-12-08T13:56:18.364Z,22.92
2023-12-08T13:58:44.977Z,22.90
2023-12-08T14:01:11.624Z,22.89
2023-12-08T14:03:39.713Z,22.91
2023-12-08T14:06:07.861Z,22.88
2023-12-08T14:08:34.515Z,22.88
2023-12-08T14:11:01.148Z,22.92
2023-12-08T14:13:27.767Z,22.91
2023-12-08T14:15:54.430Z,22.88
2023-12-08T14:18:21.256Z,22.86
2023-12-08T14:20:48.015Z,22.92
2023-12-08T14:23:14.656Z,22.94
2023-12-08T14:25:41.265Z,22.86
2023-12-08T14:28:07.902Z,22.86
2023-12-08T14:30:34.761Z,22.84
2023-12-08T14:33:01.461Z,22.83
2023-12-08T14:35:31.856Z,22.88
2023-12-08T14:37:59.090Z,22.81
2023-12-08T14:40:25.687Z,22.82
2023-12-08T14:42:52.277Z,22.80
2023-12-08T14:45:19.089Z,22.86
2023-12-08T14:47:45.855Z,22.87
2023-12-08T14:50:12.529Z,22.85
2023-12-08T14:52:40.323Z,22.87
2023-12-08T14:55:15.503Z,22.84
2023-12-08T14:57:43.457Z,22.85
2023-12-08T15:00:10.108Z,22.91
2023-12-08T15:02:36.721Z,22.88
2023-12-08T15:05:03.554Z,22.86
2023-12-08T15:07:30.190Z,22.81
2023-12-08T15:09:56.803Z,22.85
2023-12-08T15:12:23.465Z,22.81
2023-12-08T15:14:50.123Z,22.87
2023-12-08T15:17:16.760Z,22.82
2023-12-08T15:19:43.493Z,22.81
2023-12-08T15:22:10.130Z,22.82
2023-12-08T15:24:36.741Z,22.80
2023-12-08T15:27:03.385Z,22.73
2023-12-08T15:29:30.019Z,22.80
2023-12-08T15:31:56.737Z,22.80
2023-12-08T15:34:23.560Z,22.75
2023-12-08T15:36:50.283Z,22.75
2023-12-08T15:39:16.930Z,22.82
2023-12-08T15:41:43.618Z,22.73
2023-12-08T15:44:10.256Z,22.76
2023-12-08T15:46:36.871Z,22.71
2023-12-08T15:49:03.605Z,22.75
2023-12-08T15:51:30.358Z,22.76
2023-12-08T15:53:57.012Z,22.72
2023-12-08T15:56:23.662Z,22.73
2023-12-08T15:58:50.290Z,22.71
2023-12-08T16:01:16.906Z,22.71
2023-12-08T16:03:43.665Z,22.73
2023-12-08T16:06:10.470Z,22.77
2023-12-08T16:08:37.169Z,22.69
2023-12-08T16:11:03.821Z,22.76
2023-12-08T16:13:30.428Z,22.73
2023-12-08T16:15:57.034Z,22.77
2023-12-08T16:18:23.817Z,22.73
2023-12-08T16:20:50.520Z,22.76
2023-12-08T16:23:17.137Z,22.70
2023-12-08T16:25:43.734Z,22.72
2023-12-08T16:28:10.340Z,22.76
2023-12-08T16:30:36.989Z,22.71
2023-12-08T16:33:03.674Z,22.71
2023-12-08T16:35:30.312Z,22.73
2023-12-08T16:37:56.965Z,22.74
2023-12-08T16:40:23.589Z,22.73
2023-12-08T16:42:50.199Z,22.68
2023-12-08T16:45:16.989Z,22.75
2023-12-08T16:47:43.962Z,22.72
2023-12-08T16:50:10.670Z,22.72
2023-12-08T16:52:37.291Z,22.72
2023-12-08T16:55:03.961Z,22.76
2023-12-08T16:57:30.596Z,22.70
2023-12-08T16:59:57.223Z,22.73
2023-12-08T17:02:24.055Z,22.76
2023-12-08T17:04:50.832Z,22.74
2023-12-08T17:07:17.505Z,22.71
2023-12-08T17:09:44.181Z,22.68
2023-12-08T17:12:10.819Z,22.67
2023-12-08T17:14:37.516Z,22.66
2023-12-08T17:17:04.159Z,22.66
2023-12-08T17:19:30.849Z,22.67
2023-12-08T17:21:57.462Z,22.70
2023-12-08T17:24:24.119Z,22.65
2023-12-08T17:26:50.822Z,22.71
2023-12-08T17:29:17.590Z,22.68
2023-12-08T17:31:44.198Z,22.63
2023-12-08T17:34:16.553Z,22.66
2023-12-08T17:36:48.739Z,22.65
2023-12-08T17:39:15.498Z,22.67
2023-12-08T17:41:42.185Z,22.70
2023-12-08T17:44:08.840Z,22.66
2023-12-08T17:46:35.440Z,22.69
2023-12-08T17:49:02.203Z,22.67
2023-12-08T17:51:29.069Z,22.72
2023-12-08T17:53:55.766Z,22.68
2023-12-08T17:56:22.394Z,22.70
2023-12-08T17:58:49.000Z,22.70
2023-12-08T18:01:15.663Z,22.70
2023-12-08T18:03:42.446Z,22.68
2023-12-08T18:06:09.167Z,22.64
2023-12-08T18:08:35.847Z,22.63
2023-12-08T18:11:02.446Z,22.58
2023-12-08T18:13:29.049Z,22.62
2023-12-08T18:15:55.659Z,22.55
2023-12-08T18:18:22.358Z,22.54
2023-12-08T18:20:49.074Z,22.54
2023-12-08T18:23:15.697Z,22.58
2023-12-08T18:25:42.301Z,22.56
2023-12-08T18:28:27.959Z,22.57
2023-12-08T18:30:55.463Z,22.54
2023-12-08T18:33:22.276Z,22.53
2023-12-08T18:35:48.974Z,22.51
2023-12-08T18:38:15.602Z,22.51
2023-12-08T18:40:42.198Z,22.48
2023-12-08T18:43:08.808Z,22.50
2023-12-08T18:45:35.455Z,22.51
2023-12-08T18:48:02.180Z,22.48
2023-12-08T18:50:28.936Z,22.44
2023-12-08T18:52:55.557Z,22.41
2023-12-08T18:55:22.191Z,22.42
2023-12-08T18:57:48.800Z,22.44
2023-12-08T19:00:15.476Z,22.37
2023-12-08T19:02:42.112Z,22.34
2023-12-08T19:05:08.778Z,22.39
2023-12-08T19:07:35.428Z,22.36
2023-12-08T19:10:02.047Z,22.38
2023-12-08T19:12:28.842Z,22.36
2023-12-08T19:14:55.691Z,22.37
2023-12-08T19:17:22.317Z,22.32
2023-12-08T19:19:48.959Z,22.37
2023-12-08T19:22:15.583Z,22.38
2023-12-08T19:24:42.172Z,22.38
2023-12-08T19:27:08.802Z,22.35
2023-12-08T19:29:35.429Z,22.32
2023-12-08T19:32:02.048Z,22.28
2023-12-08T19:34:28.665Z,22.32
2023-12-08T19:36:55.266Z,22.38
2023-12-08T19:39:21.895Z,22.32
2023-12-08T19:41:48.582Z,22.35
2023-12-08T19:44:15.217Z,22.32
2023-12-08T19:46:41.833Z,22.33
2023-12-08T19:49:08.535Z,22.32
2023-12-08T19:51:35.226Z,22.32
2023-12-08T19:54:01.837Z,22.32
2023-12-08T19:56:28.469Z,22.26
2023-12-08T19:58:55.066Z,22.27
2023-12-08T20:01:21.707Z,22.26
2023-12-08T20:03:48.411Z,22.29
2023-12-08T20:06:15.132Z,22.27
2023-12-08T20:08:41.774Z,22.26
2023-12-08T20:11:08.392Z,22.32
2023-12-08T20:13:35.003Z,22.27
2023-12-08T20:16:01.591Z,22.30
2023-12-08T20:18:28.334Z,22.22
2023-12-08T20:20:55.022Z,22.29
2023-12-08T20:23:21.644Z,22.26
2023-12-08T20:25:48.242Z,22.23
2023-12-08T20:28:14.882Z,22.28
2023-12-08T20:30:41.533Z,22.29
2023-12-08T20:33:08.194Z,22.25
2023-12-08T20:35:34.825Z,22.19
2023-12-08T20:38:01.439Z,22.21
2023-12-08T20:40:28.027Z,22.25
2023-12-08T20:42:54.629Z,22.27
2023-12-08T20:45:21.265Z,22.26
2023-12-08T20:47:47.989Z,22.31
2023-12-08T20:50:14.699Z,22.29
2023-12-08T20:52:41.307Z,22.23
2023-12-08T20:55:07.898Z,22.20
2023-12-08T20:57:34.559Z,22.24
2023-12-08T21:00:01.266Z,22.24
2023-12-08T21:02:27.897Z,22.19
2023-12-08T21:04:54.526Z,22.18
2023-12-08T21:07:21.190Z,22.13
2023-12-08T21:09:47.875Z,22.15
2023-12-08T21:12:14.554Z,22.11
2023-12-08T21:14:41.216Z,22.19
2023-12-08T21:17:07.824Z,22.23
2023-12-08T21:19:34.716Z,22.20
2023-12-08T21:22:01.506Z,22.29
2023-12-08T21:24:28.226Z,22.35
2023-12-08T21:26:54.880Z,22.28
2023-12-08T21:29:21.529Z,22.28
2023-12-08T21:31:48.143Z,22.30
2023-12-08T21:34:14.845Z,22.30
2023-12-08T21:36:41.508Z,22.33
2023-12-08T21:39:08.163Z,22.37
2023-12-08T21:41:34.815Z,22.33
2023-12-08T21:44:01.463Z,22.35
2023-12-08T21:46:28.059Z,22.33
2023-12-08T21:48:54.779Z,22.35
2023-12-08T21:51:24.310Z,22.34
2023-12-08T21:53:50.982Z,22.37
2023-12-08T21:56:28.572Z,22.40
2023-12-08T21:58:57.650Z,22.43
2023-12-08T22:01:24.320Z,22.42
2023-12-08T22:03:51.047Z,22.40
2023-12-08T22:06:17.842Z,22.39
2023-12-08T22:08:44.496Z,22.36
2023-12-08T22:11:11.103Z,22.39
2023-12-08T22:13:37.730Z,22.36
2023-12-08T22:16:04.383Z,22.38
2023-12-08T22:18:31.127Z,22.39
2023-12-08T22:20:57.867Z,22.40
2023-12-08T22:23:24.493Z,22.41
2023-12-08T22:25:51.080Z,22.37
2023-12-08T22:28:17.703Z,22.38
2023-12-08T22:30:44.305Z,22.37
2023-12-08T22:33:11.044Z,22.39
2023-12-08T22:35:37.690Z,22.36
2023-12-08T22:38:04.297Z,22.38
2023-12-08T22:40:30.914Z,22.37
2023-12-08T22:42:57.517Z,22.40
2023-12-08T22:45:24.139Z,22.40
2023-12-08T22:47:50.849Z,22.37
2023-12-08T22:50:17.533Z,22.35
2023-12-08T22:52:44.195Z,22.39
2023-12-08T22:55:10.885Z,22.35
2023-12-08T22:57:37.494Z,22.32
2023-12-08T23:00:04.161Z,22.36
2023-12-08T23:02:30.843Z,22.37
2023-12-08T23:04:57.523Z,22.36
2023-12-08T23:07:24.151Z,22.39
2023-12-08T23:09:50.752Z,22.38
2023-12-08T23:12:17.433Z,22.38
2023-12-08T23:14:44.083Z,22.36
2023-12-08T23:17:10.708Z,22.37
2023-12-08T23:19:37.431Z,22.37
2023-12-08T23:22:04.100Z,22.33
2023-12-08T23:24:30.744Z,22.36
2023-12-08T23:26:57.429Z,22.35
2023-12-08T23:29:24.145Z,22.33
2023-12-08T23:31:50.777Z,22.34
2023-12-08T23:34:17.513Z,22.33
